AirNav   Air Wisconsin pilot careers
 
 1465 users online  

KAXQ Clarion County Airport
Clarion, Pennsylvania, USA

GOING TO CLARION?


Instrument Procedures

NOTE: All procedures below are presented as PDF files. If you need a reader for these files, you should download the free Adobe Reader.

NOT FOR NAVIGATION. Please procure official charts for flight.
FAA instrument procedures published for use from 24 May 2018 at 0901Z to 21 June 2018 at 0900Z.

 
IAPs - Instrument Approach Procedures
RNAV (GPS) RWY 06   download (210KB)
RNAV (GPS) RWY 24   download (175KB)
VOR-A   download (164KB)
NOTE: Special Take-Off Minimums/Departure Procedures apply   download (149KB)

Other nearby airports with instrument procedures:

KFKL - Venango Regional Airport (21 nm NW)
KDUJ - Dubois Regional Airport (25 nm E)
6G1 - Titusville Airport (27 nm NW)
N35 - Punxsutawney Municipal Airport (28 nm SE)
29D - Grove City Airport (33 nm W)
 
Loc | Ops | Rwys | IFR | FBO | Links
Com | Nav | Svcs | Stats | Notes

AirNav Hotels Sweepstakes
 
Area around KAXQ (Clarion County Airport)
 
Road maps at: MapQuest Bing Google
 
Aerial photo
WARNING: Photo may not be current or correct
Aerial photo of KAXQ (Clarion County Airport)
Photo by William Pixley
Photo taken 23-Aug-2016
looking east.

Do you have a better or more recent aerial photo of Clarion County Airport that you would like to share? If so, please send us your photo.

 
Sectional chart

 
Airport diagram
CAUTION: Diagram may not be current
Diagram of KAXQ (Clarion County Airport)
 
Airport distance calculator
Flying to Clarion County Airport? Find the distance to fly.

From to KAXQ

Sunrise and sunset
Times for 25-May-2018
 Local
(UTC-4)
 Zulu
(UTC)
Morning civil twilight05:2009:20
Sunrise05:5209:52
Sunset20:3700:37
Evening civil twilight21:1001:10

Current date and time
Zulu (UTC)  25-May-2018 17:17:51
Local (UTC-4)  25-May-2018 13:17:51
 
METAR
KFKL 
21nm NW 
251656Z AUTO 25005KT 10SM CLR 26/10 A3001 RMK AO2 SLP157 T02610100
KDUJ 
25nm E 
251653Z AUTO 24009G16KT 10SM CLR 26/12 A3001 RMK AO2 SLP149 T02560122
KBTP 
36nm SW 
251656Z AUTO 22007KT 170V250 10SM CLR 27/14 A3001 RMK AO2 SLP159 T02720144
KIDI 
40nm SE 
251655Z AUTO 23004G11KT 10SM FEW037 26/18 A3005 RMK A01
TAF
KFKL 
21nm NW 
251120Z 2512/2612 VRB03KT P6SM SKC
KDUJ 
25nm E 
251120Z 2512/2612 VRB03KT P6SM SKC
NOTAMs
Click for the latest NOTAMs
NOTAMs are issued by the DoD/FAA and will open in a separate window not controlled by AirNav.

 

 
 

FBO, Fuel Providers, and Aircraft Ground Support

  
 Business Name 
 
 Contact 
 
 Services / Description 
 
Fuel Prices
 
Comments
  
 Clarion County Airport
814-226-9993
[web site]
[email]
Airport management, Aviation fuel, Aircraft parking (ramp or tiedown), Hangars, Passenger terminal and lounge, Flight training, Aircraft rental, ...

More info about Clarion County Airport
EPIC
100LL Jet A
AS $4.90 $3.85 
 Updated 22-May-2018
 
   2 read write
AS=Assisted/Self Service
Update Fuel Prices
 

Would you like to see your business listed on this page?

 If your business provides an interesting product or service to pilots, flight crews, aircraft, or users of the Clarion County Airport, you should consider listing it here.  To start the listing process, click on the button below
 
Add a business
 

Other Pages about Clarion County Airport

www.clarionairport.com
users.penn.com/~airport
 
Update a link
 
Copyright © AirNav, LLC. All rights reserved. Privacy Policy  Contact